Terminal Aerodrome Forecast
Issued by NWS State College, PA

Home | Current Version | Previous Version | Text Only | Print | Product List | Glossary On
Versions: 1 2 3 4 5 6 7 8 9 10 11 12 13 14 15 16 17 18 19 20 21 22 23 24 25 26 27 28 29 30 31 32 33 34 35 36 37 38 39 40 41 42 43
000
FTUS41 KCTP 192339
TAFMDT
TAF
KMDT 192339Z 2000/2024 13007KT P6SM BKN050
     FM200400 11006KT P6SM BKN020 OVC040
     FM200600 13007KT 6SM -DZ BR OVC006
     FM201600 17007KT P6SM BKN050 OVC100=

USA.gov is the U.S. government's official web portal to all federal, state and local government web resources and services.